createdAt,value
2019-02-20T00:01:41.406Z,11.10
2019-02-20T00:04:10.488Z,13.93
2019-02-20T00:06:39.493Z,9.77
2019-02-20T00:09:08.458Z,13.17
2019-02-20T00:11:37.493Z,13.57
2019-02-20T00:14:06.601Z,14.00
2019-02-20T00:16:35.587Z,17.33
2019-02-20T00:19:04.554Z,15.63
2019-02-20T00:21:33.543Z,16.20
2019-02-20T00:24:02.626Z,15.90
2019-02-20T00:26:31.643Z,15.30
2019-02-20T00:29:00.742Z,14.43
2019-02-20T00:31:29.753Z,16.47
2019-02-20T00:33:58.833Z,14.30
2019-02-20T00:36:27.848Z,17.47
2019-02-20T00:38:56.945Z,12.50
2019-02-20T00:41:25.963Z,17.10
2019-02-20T00:44:12.386Z,11.40
2019-02-20T00:46:48.566Z,12.03
2019-02-20T00:49:36.550Z,15.37
2019-02-20T00:52:23.462Z,15.50
2019-02-20T00:54:52.586Z,17.50
2019-02-20T00:57:22.021Z,13.77
2019-02-20T00:59:50.982Z,16.20
2019-02-20T01:02:19.952Z,15.07
2019-02-20T01:04:48.998Z,11.93
2019-02-20T01:07:17.945Z,13.27
2019-02-20T01:09:47.011Z,15.53
2019-02-20T01:12:15.995Z,13.97
2019-02-20T01:14:44.996Z,14.60
2019-02-20T01:17:14.019Z,15.80
2019-02-20T01:19:43.091Z,12.73
2019-02-20T01:22:12.082Z,15.80
2019-02-20T01:24:41.091Z,10.93
2019-02-20T01:27:10.014Z,12.63
2019-02-20T01:29:39.065Z,10.57
2019-02-20T01:32:08.003Z,14.13
2019-02-20T01:34:36.990Z,11.60
2019-02-20T01:37:05.898Z,15.47
2019-02-20T01:39:34.908Z,13.13
2019-02-20T01:42:03.939Z,14.13
2019-02-20T01:44:32.949Z,13.60
2019-02-20T01:47:01.990Z,13.07
2019-02-20T01:49:31.035Z,14.83
2019-02-20T01:52:00.113Z,12.13
2019-02-20T01:54:29.137Z,16.30
2019-02-20T01:56:58.193Z,10.70
2019-02-20T01:59:27.215Z,18.47
2019-02-20T02:01:56.261Z,12.83
2019-02-20T02:04:25.340Z,9.77
2019-02-20T02:06:54.477Z,14.33
2019-02-20T02:09:23.528Z,15.80
2019-02-20T02:11:52.602Z,10.57
2019-02-20T02:14:21.663Z,10.87
2019-02-20T02:16:50.736Z,10.03
2019-02-20T02:19:19.772Z,11.80
2019-02-20T02:21:48.853Z,10.30
2019-02-20T02:24:17.883Z,14.70
2019-02-20T02:26:46.976Z,11.40
2019-02-20T02:29:16.093Z,13.63
2019-02-20T02:31:45.176Z,17.70
2019-02-20T02:34:14.203Z,12.70
2019-02-20T02:36:43.292Z,11.03
2019-02-20T02:39:12.323Z,10.67
2019-02-20T02:41:41.409Z,11.73
2019-02-20T02:44:10.458Z,12.20
2019-02-20T02:46:39.543Z,14.00
2019-02-20T02:49:08.572Z,12.97
2019-02-20T02:51:37.655Z,10.37
2019-02-20T02:54:06.738Z,13.47
2019-02-20T02:56:35.844Z,14.60
2019-02-20T02:59:04.911Z,14.80
2019-02-20T03:01:33.988Z,13.40
2019-02-20T03:04:03.091Z,16.27
2019-02-20T03:06:32.196Z,12.13
2019-02-20T03:09:01.252Z,11.23
2019-02-20T03:11:30.349Z,12.50
2019-02-20T03:13:59.386Z,9.43
2019-02-20T03:16:28.455Z,12.77
2019-02-20T03:18:57.540Z,12.77
2019-02-20T03:21:26.567Z,14.70
2019-02-20T03:23:55.657Z,17.50
2019-02-20T03:26:24.692Z,11.77
2019-02-20T03:28:53.745Z,13.53
2019-02-20T03:31:22.867Z,9.90
2019-02-20T03:33:51.934Z,12.27
2019-02-20T03:36:20.974Z,15.30
2019-02-20T03:38:50.121Z,11.87
2019-02-20T03:41:19.167Z,21.40
2019-02-20T03:43:48.248Z,16.57
2019-02-20T03:46:17.313Z,9.57
2019-02-20T03:48:46.381Z,14.20
2019-02-20T03:51:15.389Z,16.20
2019-02-20T03:53:51.674Z,11.50
2019-02-20T03:56:15.237Z,11.93
2019-02-20T03:58:44.308Z,13.87
2019-02-20T04:01:13.407Z,17.77
2019-02-20T04:03:42.512Z,13.07
2019-02-20T04:06:11.567Z,14.90
2019-02-20T04:08:40.652Z,17.40
2019-02-20T04:11:09.673Z,15.40
2019-02-20T04:13:38.752Z,13.60
2019-02-20T04:16:07.801Z,12.93
2019-02-20T04:18:36.937Z,8.90
2019-02-20T04:21:05.968Z,15.80
2019-02-20T04:23:35.036Z,12.23
2019-02-20T04:26:04.125Z,10.70
2019-02-20T04:28:33.184Z,13.70
2019-02-20T04:31:02.221Z,10.47
2019-02-20T04:33:31.328Z,13.07
2019-02-20T04:36:00.381Z,12.77
2019-02-20T04:38:29.609Z,18.77
2019-02-20T04:40:58.623Z,9.87
2019-02-20T04:43:27.722Z,12.37
2019-02-20T04:45:56.753Z,16.43
2019-02-20T04:48:25.850Z,13.73
2019-02-20T04:50:54.907Z,14.40
2019-02-20T04:53:24.028Z,13.33
2019-02-20T04:55:53.064Z,13.97
2019-02-20T04:58:23.546Z,12.97
2019-02-20T05:00:52.649Z,14.90
2019-02-20T05:03:23.255Z,18.17
2019-02-20T05:05:52.525Z,16.07
2019-02-20T05:08:21.649Z,11.53
2019-02-20T05:10:50.731Z,12.20
2019-02-20T05:13:22.480Z,14.00
2019-02-20T05:15:51.538Z,15.10
2019-02-20T05:18:20.618Z,11.10
2019-02-20T05:20:49.744Z,13.57
2019-02-20T05:23:18.858Z,13.83
2019-02-20T05:25:47.982Z,10.47
2019-02-20T05:28:17.061Z,13.00
2019-02-20T05:30:46.263Z,13.17
2019-02-20T05:33:15.356Z,13.10
2019-02-20T05:35:44.423Z,13.87
2019-02-20T05:38:13.706Z,16.43
2019-02-20T05:40:42.815Z,11.60
2019-02-20T05:43:11.887Z,15.33
2019-02-20T05:45:41.030Z,17.40
2019-02-20T05:48:10.337Z,12.13
2019-02-20T05:50:39.397Z,11.37
2019-02-20T05:53:08.508Z,13.80
2019-02-20T05:55:37.562Z,12.50
2019-02-20T05:58:06.612Z,11.83
2019-02-20T06:00:35.658Z,16.93
2019-02-20T06:03:05.100Z,13.10
2019-02-20T06:05:35.498Z,12.57
2019-02-20T06:08:04.518Z,12.97
2019-02-20T06:10:33.548Z,12.80
2019-02-20T06:13:04.960Z,17.00
2019-02-20T06:15:34.079Z,14.53
2019-02-20T06:18:03.173Z,11.43
2019-02-20T06:20:32.236Z,13.97
2019-02-20T06:23:01.331Z,15.57
2019-02-20T06:25:30.497Z,14.30
2019-02-20T06:27:59.595Z,22.60
2019-02-20T06:30:28.705Z,22.07
2019-02-20T06:32:57.836Z,26.80
2019-02-20T06:35:27.301Z,16.13
2019-02-20T06:37:56.519Z,13.67
2019-02-20T06:40:25.619Z,15.97
2019-02-20T06:42:54.750Z,20.00
2019-02-20T06:45:23.893Z,18.00
2019-02-20T06:47:52.953Z,20.47
2019-02-20T06:50:21.996Z,20.40
2019-02-20T06:52:51.165Z,13.53
2019-02-20T06:55:20.264Z,10.40
2019-02-20T06:57:49.334Z,12.07
2019-02-20T07:00:18.413Z,19.93
2019-02-20T07:02:47.511Z,12.83
2019-02-20T07:06:06.920Z,15.73
2019-02-20T07:09:15.209Z,14.57
2019-02-20T07:12:13.278Z,16.63
2019-02-20T07:15:07.006Z,22.13
2019-02-20T07:17:59.519Z,20.43
2019-02-20T07:20:58.118Z,15.77
2019-02-20T07:23:34.393Z,17.90
2019-02-20T07:26:36.279Z,15.73
2019-02-20T07:29:45.509Z,18.33
2019-02-20T07:32:16.837Z,12.33
2019-02-20T07:34:45.858Z,14.50
2019-02-20T07:37:14.987Z,19.20
2019-02-20T07:39:44.111Z,22.23
2019-02-20T07:42:13.254Z,16.00
2019-02-20T07:44:42.354Z,16.73
2019-02-20T07:47:13.616Z,17.63
2019-02-20T07:49:42.820Z,18.23
2019-02-20T07:52:11.903Z,16.40
2019-02-20T07:54:40.970Z,15.20
2019-02-20T07:57:10.117Z,15.30
2019-02-20T07:59:39.247Z,17.47
2019-02-20T08:02:08.315Z,12.60
2019-02-20T08:04:37.436Z,16.00
2019-02-20T08:07:06.553Z,19.70
2019-02-20T08:09:35.885Z,20.17
2019-02-20T08:12:04.964Z,24.37
2019-02-20T08:14:34.106Z,18.93
2019-02-20T08:17:03.216Z,20.40
2019-02-20T08:19:32.368Z,17.83
2019-02-20T08:22:01.498Z,20.37
2019-02-20T08:24:30.687Z,21.00
2019-02-20T08:26:59.811Z,20.77
2019-02-20T08:29:29.047Z,20.50
2019-02-20T08:31:58.135Z,21.43
2019-02-20T08:34:27.209Z,20.50
2019-02-20T08:36:56.608Z,20.83
2019-02-20T08:39:25.686Z,21.53
2019-02-20T08:41:54.820Z,21.13
2019-02-20T08:44:23.910Z,18.90
2019-02-20T08:46:52.997Z,22.87
2019-02-20T08:49:22.137Z,20.63
2019-02-20T08:51:51.270Z,22.20
2019-02-20T08:54:20.444Z,21.73
2019-02-20T08:56:49.596Z,19.73
2019-02-20T08:59:18.806Z,24.03
2019-02-20T09:01:47.933Z,21.67
2019-02-20T09:04:17.033Z,23.07
2019-02-20T09:06:46.188Z,23.00
2019-02-20T09:09:15.279Z,24.00
2019-02-20T09:11:45.989Z,27.07
2019-02-20T09:14:15.037Z,24.87
2019-02-20T09:16:44.159Z,22.67
2019-02-20T09:19:13.196Z,26.10
2019-02-20T09:21:42.327Z,22.40
2019-02-20T09:24:11.453Z,21.10
2019-02-20T09:26:40.471Z,23.50
2019-02-20T09:29:09.534Z,20.03
2019-02-20T09:31:38.698Z,29.23
2019-02-20T09:34:07.693Z,22.07
2019-02-20T09:36:36.787Z,20.93
2019-02-20T09:39:33.940Z,23.30
2019-02-20T09:42:03.341Z,23.30
2019-02-20T09:44:35.888Z,21.07
2019-02-20T09:47:04.968Z,19.80
2019-02-20T09:49:34.021Z,15.80
2019-02-20T09:52:03.229Z,23.73
2019-02-20T09:54:32.398Z,17.20
2019-02-20T09:57:01.496Z,20.10
2019-02-20T09:59:30.608Z,19.03
2019-02-20T10:01:59.698Z,17.57
2019-02-20T10:04:28.788Z,24.70
2019-02-20T10:06:57.913Z,20.63
2019-02-20T10:09:26.962Z,21.87
2019-02-20T10:11:56.105Z,19.53
2019-02-20T10:14:25.232Z,22.97
2019-02-20T10:16:54.367Z,19.13
2019-02-20T10:19:23.441Z,20.17
2019-02-20T10:21:52.595Z,17.27
2019-02-20T10:24:21.739Z,22.87
2019-02-20T10:26:50.779Z,23.27
2019-02-20T10:29:19.849Z,26.27
2019-02-20T10:31:49.203Z,24.03
2019-02-20T10:34:18.436Z,23.30
2019-02-20T10:36:47.729Z,25.63
2019-02-20T10:39:16.808Z,29.30
2019-02-20T10:41:45.896Z,28.57
2019-02-20T10:44:15.100Z,27.93
2019-02-20T10:46:44.191Z,28.10
2019-02-20T10:49:13.358Z,29.90
2019-02-20T10:51:42.526Z,28.87
2019-02-20T10:54:11.656Z,27.10
2019-02-20T10:56:40.786Z,27.93
2019-02-20T10:59:09.817Z,28.53
2019-02-20T11:01:38.965Z,28.77
2019-02-20T11:04:08.040Z,27.30
2019-02-20T11:06:37.219Z,30.00
2019-02-20T11:09:07.164Z,26.03
2019-02-20T11:11:36.231Z,26.87
2019-02-20T11:14:05.337Z,27.23
2019-02-20T11:16:34.478Z,22.10
2019-02-20T11:19:03.665Z,21.47
2019-02-20T11:21:32.792Z,25.50
2019-02-20T11:24:01.837Z,25.27
2019-02-20T11:26:30.943Z,21.43
2019-02-20T11:29:00.046Z,22.07
2019-02-20T11:31:29.251Z,23.37
2019-02-20T11:33:58.383Z,22.90
2019-02-20T11:36:27.499Z,25.23
2019-02-20T11:38:56.662Z,20.73
2019-02-20T11:41:25.722Z,22.57
2019-02-20T11:43:54.784Z,20.07
2019-02-20T11:46:23.818Z,24.70
2019-02-20T11:48:52.899Z,18.37
2019-02-20T11:51:21.944Z,24.83
2019-02-20T11:53:51.024Z,23.60
2019-02-20T11:56:26.461Z,21.70
2019-02-20T11:58:50.948Z,17.50
2019-02-20T12:01:19.988Z,17.50
2019-02-20T12:03:49.096Z,21.13
2019-02-20T12:06:18.181Z,16.90
2019-02-20T12:08:47.227Z,20.70
2019-02-20T12:11:16.265Z,16.83
2019-02-20T12:13:45.360Z,18.77
2019-02-20T12:16:14.393Z,18.70
2019-02-20T12:18:45.280Z,16.97
2019-02-20T12:21:14.272Z,15.80
2019-02-20T12:23:43.323Z,17.37
2019-02-20T12:26:12.359Z,19.73
2019-02-20T12:28:41.467Z,14.10
2019-02-20T12:31:10.506Z,14.03
2019-02-20T12:33:39.560Z,12.97
2019-02-20T12:36:08.621Z,11.60
2019-02-20T12:38:37.741Z,10.20
2019-02-20T12:41:06.781Z,11.37
2019-02-20T12:43:35.871Z,9.97
2019-02-20T12:46:04.927Z,8.13
2019-02-20T12:48:34.041Z,7.07
2019-02-20T12:51:03.083Z,6.97
2019-02-20T12:53:32.163Z,5.73
2019-02-20T12:56:09.654Z,7.60
2019-02-20T12:58:32.097Z,7.50
2019-02-20T13:01:01.193Z,7.03
2019-02-20T13:03:30.307Z,4.23
2019-02-20T13:05:59.381Z,7.60
2019-02-20T13:08:28.499Z,4.43
2019-02-20T13:10:57.571Z,6.57
2019-02-20T13:13:26.668Z,5.90
2019-02-20T13:15:55.801Z,9.30
2019-02-20T13:18:24.885Z,6.63
2019-02-20T13:20:53.898Z,9.93
2019-02-20T13:23:23.020Z,9.23
2019-02-20T13:25:52.053Z,9.80
2019-02-20T13:28:21.154Z,8.40
2019-02-20T13:30:50.210Z,7.97
2019-02-20T13:33:19.258Z,8.43
2019-02-20T13:35:48.320Z,8.13
2019-02-20T13:38:17.399Z,6.57
2019-02-20T13:40:46.632Z,6.60
2019-02-20T13:43:15.762Z,5.03
2019-02-20T13:45:45.098Z,5.53
2019-02-20T13:48:14.403Z,4.83
2019-02-20T13:50:43.540Z,5.87
2019-02-20T13:53:14.172Z,8.13
2019-02-20T13:55:43.444Z,8.03
2019-02-20T13:58:12.541Z,8.33
2019-02-20T14:00:41.614Z,9.53
2019-02-20T14:03:10.685Z,8.90
2019-02-20T14:05:39.876Z,8.10
2019-02-20T14:08:09.072Z,8.90
2019-02-20T14:10:38.169Z,8.07
2019-02-20T14:13:07.258Z,6.53
2019-02-20T14:15:36.316Z,8.57
2019-02-20T14:18:05.558Z,8.40
2019-02-20T14:20:34.690Z,7.20
2019-02-20T14:23:03.738Z,8.23
2019-02-20T14:25:32.899Z,7.97
2019-02-20T14:28:01.995Z,6.90
2019-02-20T14:30:31.073Z,7.10
2019-02-20T14:33:00.732Z,5.57
2019-02-20T14:35:29.769Z,4.30
2019-02-20T14:37:58.823Z,8.30
2019-02-20T14:40:27.940Z,7.60
2019-02-20T14:42:57.037Z,5.80
2019-02-20T14:45:26.120Z,8.67
2019-02-20T14:47:55.236Z,5.40
2019-02-20T14:50:24.311Z,6.87
2019-02-20T14:52:53.408Z,5.30
2019-02-20T14:55:22.524Z,6.80
2019-02-20T14:57:51.588Z,5.73
2019-02-20T15:00:20.718Z,6.43
2019-02-20T15:02:49.763Z,6.93
2019-02-20T15:05:19.153Z,9.33
2019-02-20T15:07:48.267Z,6.53
2019-02-20T15:10:20.163Z,6.90
2019-02-20T15:12:49.256Z,6.67
2019-02-20T15:15:19.184Z,9.60
2019-02-20T15:17:48.489Z,9.20
2019-02-20T15:20:18.432Z,8.60
2019-02-20T15:22:47.597Z,8.87
2019-02-20T15:25:16.753Z,10.33
2019-02-20T15:27:45.826Z,8.73
2019-02-20T15:30:14.958Z,9.23
2019-02-20T15:32:44.033Z,9.13
2019-02-20T15:35:13.591Z,9.00
2019-02-20T15:37:42.742Z,12.27
2019-02-20T15:40:11.953Z,12.60
2019-02-20T15:42:41.152Z,10.57
2019-02-20T15:45:10.282Z,11.07
2019-02-20T15:47:40.484Z,9.50
2019-02-20T15:50:11.628Z,9.03
2019-02-20T15:52:40.818Z,11.63
2019-02-20T15:55:11.417Z,8.90
2019-02-20T15:57:41.363Z,7.93
2019-02-20T16:00:16.041Z,11.00
2019-02-20T16:02:45.405Z,13.87
2019-02-20T16:05:15.001Z,7.77
2019-02-20T16:07:44.157Z,11.33
2019-02-20T16:10:13.400Z,8.30
2019-02-20T16:12:43.202Z,11.80
2019-02-20T16:15:14.696Z,9.70
2019-02-20T16:17:44.878Z,7.67
2019-02-20T16:20:14.524Z,8.20
2019-02-20T16:22:43.827Z,8.97
2019-02-20T16:25:13.748Z,10.67
2019-02-20T16:27:47.167Z,11.30
2019-02-20T16:30:13.921Z,10.80
2019-02-20T16:32:43.062Z,9.30
2019-02-20T16:35:12.616Z,9.73
2019-02-20T16:37:42.027Z,12.23
2019-02-20T16:40:12.453Z,9.80
2019-02-20T16:42:41.536Z,9.57
2019-02-20T16:45:19.418Z,9.60
2019-02-20T16:47:48.689Z,9.43
2019-02-20T16:50:17.872Z,14.23
2019-02-20T16:52:47.586Z,10.90
2019-02-20T16:55:19.335Z,9.13
2019-02-20T16:57:56.360Z,12.83
2019-02-20T17:00:19.834Z,10.13
2019-02-20T17:02:49.036Z,15.00
2019-02-20T17:05:18.336Z,9.67
2019-02-20T17:07:47.619Z,12.13
2019-02-20T17:10:16.737Z,12.10
2019-02-20T17:12:45.860Z,11.37
2019-02-20T17:15:15.255Z,13.30
2019-02-20T17:17:44.309Z,9.60
2019-02-20T17:20:13.781Z,9.90
2019-02-20T17:22:43.001Z,15.53
2019-02-20T17:25:12.167Z,10.03
2019-02-20T17:27:41.337Z,10.93
2019-02-20T17:30:11.668Z,12.00
2019-02-20T17:32:40.836Z,10.30
2019-02-20T17:35:10.879Z,10.37
2019-02-20T17:37:39.962Z,11.17
2019-02-20T17:40:09.038Z,11.20
2019-02-20T17:42:38.073Z,11.93
2019-02-20T17:45:08.534Z,14.83
2019-02-20T17:47:37.620Z,12.03
2019-02-20T17:50:12.918Z,13.70
2019-02-20T17:52:42.027Z,12.23
2019-02-20T17:55:11.214Z,11.10
2019-02-20T17:57:40.302Z,12.83
2019-02-20T18:00:11.311Z,10.37
2019-02-20T18:02:40.585Z,13.83
2019-02-20T18:05:09.827Z,10.30
2019-02-20T18:07:48.332Z,11.00
2019-02-20T18:10:10.479Z,17.00
2019-02-20T18:12:39.815Z,14.43
2019-02-20T18:15:09.337Z,12.13
2019-02-20T18:17:38.648Z,14.10
2019-02-20T18:20:08.159Z,15.43
2019-02-20T18:22:37.382Z,16.63
2019-02-20T18:25:06.608Z,16.60
2019-02-20T18:27:35.986Z,16.03
2019-02-20T18:30:05.389Z,12.50
2019-02-20T18:32:34.713Z,15.30
2019-02-20T18:35:04.055Z,15.23
2019-02-20T18:37:33.183Z,16.23
2019-02-20T18:40:02.537Z,14.83
2019-02-20T18:42:31.732Z,12.50
2019-02-20T18:45:00.934Z,12.37
2019-02-20T18:47:30.230Z,15.60
2019-02-20T18:49:59.361Z,17.67
2019-02-20T18:52:28.529Z,13.83
2019-02-20T18:55:05.509Z,12.63
2019-02-20T18:57:28.976Z,15.93
2019-02-20T18:59:58.279Z,14.93
2019-02-20T19:02:27.381Z,13.90
2019-02-20T19:04:56.734Z,13.03
2019-02-20T19:07:26.170Z,15.50
2019-02-20T19:09:55.513Z,16.90
2019-02-20T19:12:41.986Z,14.93
2019-02-20T19:15:42.671Z,16.10
2019-02-20T19:19:02.594Z,17.83
2019-02-20T19:22:17.480Z,15.20
2019-02-20T19:25:22.553Z,17.03
2019-02-20T19:28:12.380Z,15.60
2019-02-20T19:31:40.931Z,14.27
2019-02-20T19:34:26.312Z,13.80
2019-02-20T19:37:37.954Z,19.93
2019-02-20T19:40:40.726Z,17.20
2019-02-20T19:43:34.005Z,14.70
2019-02-20T19:46:36.422Z,15.03
2019-02-20T19:49:33.758Z,13.80
2019-02-20T19:52:47.453Z,13.70
2019-02-20T19:55:55.099Z,17.30
2019-02-20T19:59:17.425Z,15.73
2019-02-20T20:02:28.526Z,14.37
2019-02-20T20:05:37.454Z,21.70
2019-02-20T20:09:05.575Z,19.40
2019-02-20T20:12:28.131Z,17.20
2019-02-20T20:15:38.484Z,19.67
2019-02-20T20:18:45.887Z,20.27
2019-02-20T20:21:51.861Z,17.30
2019-02-20T20:24:45.004Z,19.63
2019-02-20T20:27:51.738Z,20.27
2019-02-20T20:31:01.682Z,20.43
2019-02-20T20:34:18.512Z,19.47
2019-02-20T20:37:05.997Z,17.97
2019-02-20T20:40:18.160Z,19.17
2019-02-20T20:43:28.429Z,22.00
2019-02-20T20:46:44.692Z,19.03
2019-02-20T20:50:09.015Z,20.40
2019-02-20T20:53:03.057Z,17.70
2019-02-20T20:56:07.693Z,20.07
2019-02-20T20:59:17.798Z,20.20
2019-02-20T21:02:14.365Z,22.33
2019-02-20T21:05:19.368Z,17.20
2019-02-20T21:08:33.221Z,17.13
2019-02-20T21:12:04.687Z,18.73
2019-02-20T21:15:05.246Z,17.50
2019-02-20T21:18:12.257Z,16.70
2019-02-20T21:21:19.550Z,18.40
2019-02-20T21:24:25.546Z,18.93
2019-02-20T21:27:39.891Z,14.27
2019-02-20T21:30:42.926Z,20.27
2019-02-20T21:33:42.366Z,16.13
2019-02-20T21:37:03.561Z,17.83
2019-02-20T21:39:51.461Z,16.60
2019-02-20T21:42:45.652Z,16.20
2019-02-20T21:45:48.767Z,15.83
2019-02-20T21:49:07.843Z,19.37
2019-02-20T21:52:31.721Z,17.47
2019-02-20T21:55:48.114Z,15.47
2019-02-20T21:58:33.733Z,17.40
2019-02-20T22:01:43.969Z,16.40
2019-02-20T22:04:52.968Z,18.87
2019-02-20T22:08:02.762Z,18.23
2019-02-20T22:11:03.473Z,18.47
2019-02-20T22:14:12.127Z,18.27
2019-02-20T22:17:40.625Z,14.17
2019-02-20T22:20:47.322Z,17.23
2019-02-20T22:23:52.384Z,16.67
2019-02-20T22:26:46.889Z,16.07
2019-02-20T22:29:49.742Z,16.53
2019-02-20T22:33:00.551Z,15.53
2019-02-20T22:36:12.758Z,19.33
2019-02-20T22:38:53.536Z,16.93
2019-02-20T22:41:38.047Z,18.47
2019-02-20T22:44:38.842Z,16.50
2019-02-20T22:47:37.949Z,15.40
2019-02-20T22:50:38.843Z,13.73
2019-02-20T22:53:37.480Z,17.63
2019-02-20T22:56:39.132Z,17.17
2019-02-20T22:59:43.863Z,16.37
2019-02-20T23:03:01.123Z,18.10
2019-02-20T23:06:07.490Z,14.53
2019-02-20T23:09:20.358Z,16.67
2019-02-20T23:12:14.077Z,18.40
2019-02-20T23:14:54.728Z,18.33
2019-02-20T23:17:23.895Z,15.40
2019-02-20T23:19:53.487Z,14.87
2019-02-20T23:22:22.628Z,18.97
2019-02-20T23:24:51.852Z,17.20
2019-02-20T23:27:21.001Z,16.87
2019-02-20T23:29:50.256Z,16.07
2019-02-20T23:32:19.343Z,15.90
2019-02-20T23:34:48.543Z,20.30
2019-02-20T23:37:17.810Z,15.57
2019-02-20T23:39:47.039Z,19.67
2019-02-20T23:42:16.232Z,18.00
2019-02-20T23:44:45.381Z,17.90
2019-02-20T23:47:14.716Z,14.47
2019-02-20T23:49:43.800Z,20.67
2019-02-20T23:52:12.924Z,14.67
2019-02-20T23:54:42.024Z,19.77
2019-02-20T23:57:11.138Z,15.97
2019-02-20T23:59:40.218Z,18.40
